createdAt,value
2018-09-26T00:01:56.097Z,9.23
2018-09-26T00:04:23.837Z,9.20
2018-09-26T00:06:52.738Z,9.15
2018-09-26T00:09:20.468Z,9.12
2018-09-26T00:11:49.363Z,9.06
2018-09-26T00:14:17.600Z,9.04
2018-09-26T00:16:45.402Z,8.98
2018-09-26T00:19:14.380Z,8.95
2018-09-26T00:21:42.690Z,8.91
2018-09-26T00:24:11.587Z,8.89
2018-09-26T00:26:39.934Z,8.86
2018-09-26T00:29:08.241Z,8.84
2018-09-26T00:31:37.134Z,8.85
2018-09-26T00:34:04.864Z,8.83
2018-09-26T00:36:33.174Z,8.82
2018-09-26T00:39:02.069Z,8.75
2018-09-26T00:41:29.804Z,8.71
2018-09-26T00:43:58.109Z,8.68
2018-09-26T00:46:26.417Z,8.67
2018-09-26T00:48:55.309Z,8.67
2018-09-26T00:51:23.610Z,8.68
2018-09-26T00:53:51.352Z,8.66
2018-09-26T00:56:20.234Z,8.66
2018-09-26T00:58:47.968Z,8.65
2018-09-26T01:01:16.862Z,8.64
2018-09-26T01:03:44.598Z,8.63
2018-09-26T01:06:12.905Z,8.63
2018-09-26T01:08:41.670Z,8.64
2018-09-26T01:11:09.509Z,8.66
2018-09-26T01:13:37.813Z,8.72
2018-09-26T01:16:06.498Z,8.78
2018-09-26T01:18:35.028Z,8.84
2018-09-26T01:21:02.745Z,8.89
2018-09-26T01:23:31.109Z,8.94
2018-09-26T01:25:59.996Z,8.99
2018-09-26T01:28:27.729Z,8.98
2018-09-26T01:30:56.038Z,8.94
2018-09-26T01:33:24.919Z,8.95
2018-09-26T01:35:52.657Z,8.95
2018-09-26T01:38:21.544Z,8.89
2018-09-26T01:40:49.848Z,8.84
2018-09-26T01:43:18.165Z,8.83
2018-09-26T01:45:45.897Z,8.86
2018-09-26T01:48:14.220Z,8.89
2018-09-26T01:50:43.104Z,8.92
2018-09-26T01:53:10.835Z,8.89
2018-09-26T01:55:39.152Z,8.91
2018-09-26T01:58:07.457Z,8.89
2018-09-26T02:00:35.769Z,8.91
2018-09-26T02:03:04.068Z,8.95
2018-09-26T02:05:32.964Z,8.99
2018-09-26T02:08:01.262Z,8.98
2018-09-26T02:10:29.569Z,8.96
2018-09-26T02:12:57.883Z,8.94
2018-09-26T02:15:25.630Z,8.89
2018-09-26T02:17:54.511Z,8.93
2018-09-26T02:20:22.260Z,8.99
2018-09-26T02:22:50.565Z,8.99
2018-09-26T02:25:19.457Z,9.03
2018-09-26T02:27:47.761Z,9.00
2018-09-26T02:30:15.497Z,8.95
2018-09-26T02:32:43.802Z,8.92
2018-09-26T02:35:12.707Z,8.88
2018-09-26T02:37:40.428Z,8.94
2018-09-26T02:40:08.804Z,8.99
2018-09-26T02:42:37.648Z,9.01
2018-09-26T02:45:06.175Z,9.08
2018-09-26T02:47:34.263Z,9.19
2018-09-26T02:50:01.994Z,9.29
2018-09-26T02:52:30.305Z,9.39
2018-09-26T02:54:58.620Z,9.53
2018-09-26T02:57:26.939Z,9.62
2018-09-26T02:59:55.254Z,9.71
2018-09-26T03:02:24.144Z,9.79
2018-09-26T03:04:51.872Z,9.87
2018-09-26T03:07:20.194Z,9.98
2018-09-26T03:09:48.504Z,10.00
2018-09-26T03:12:17.401Z,10.09
2018-09-26T03:14:45.714Z,10.14
2018-09-26T03:17:13.449Z,10.20
2018-09-26T03:19:41.762Z,10.25
2018-09-26T03:22:10.091Z,10.30
2018-09-26T03:24:38.992Z,10.32
2018-09-26T03:27:06.726Z,10.36
2018-09-26T03:29:35.621Z,10.39
2018-09-26T03:32:03.943Z,10.41
2018-09-26T03:34:32.259Z,10.42
2018-09-26T03:37:00.018Z,10.41
2018-09-26T03:39:28.326Z,10.43
2018-09-26T03:41:57.209Z,10.44
2018-09-26T03:44:24.951Z,10.42
2018-09-26T03:46:53.850Z,10.43
2018-09-26T03:49:21.589Z,10.40
2018-09-26T03:51:49.906Z,10.39
2018-09-26T03:54:18.792Z,10.33
2018-09-26T03:56:46.565Z,10.36
2018-09-26T03:59:15.511Z,10.28
2018-09-26T04:01:43.245Z,10.24
2018-09-26T04:04:12.163Z,10.27
2018-09-26T04:06:39.894Z,10.25
2018-09-26T04:09:08.784Z,10.18
2018-09-26T04:11:37.106Z,10.19
2018-09-26T04:14:04.847Z,10.18
2018-09-26T04:16:33.745Z,10.11
2018-09-26T04:19:02.070Z,10.12
2018-09-26T04:21:29.814Z,10.12
2018-09-26T04:23:58.703Z,10.08
2018-09-26T04:26:26.528Z,10.09
2018-09-26T04:28:55.373Z,10.13
2018-09-26T04:31:23.706Z,10.13
2018-09-26T04:33:51.469Z,10.10
2018-09-26T04:36:20.329Z,10.12
2018-09-26T04:38:48.746Z,10.12
2018-09-26T04:41:16.378Z,10.11
2018-09-26T04:43:44.688Z,10.09
2018-09-26T04:46:13.073Z,10.09
2018-09-26T04:48:41.377Z,10.09
2018-09-26T04:51:10.278Z,10.08
2018-09-26T04:53:38.006Z,10.08
2018-09-26T04:56:06.318Z,10.03
2018-09-26T04:58:34.647Z,10.06
2018-09-26T05:01:03.570Z,10.09
2018-09-26T05:03:31.961Z,10.11
2018-09-26T05:06:00.286Z,10.15
2018-09-26T05:08:28.585Z,10.17
2018-09-26T05:10:56.904Z,10.18
2018-09-26T05:13:24.638Z,10.22
2018-09-26T05:15:53.553Z,10.25
2018-09-26T05:18:21.286Z,10.30
2018-09-26T05:20:50.193Z,10.33
2018-09-26T05:23:18.515Z,10.36
2018-09-26T05:25:46.834Z,10.41
2018-09-26T05:28:14.614Z,10.41
2018-09-26T05:30:43.472Z,10.45
2018-09-26T05:33:11.791Z,10.47
2018-09-26T05:35:40.652Z,10.53
2018-09-26T05:38:09.354Z,10.60
2018-09-26T05:40:37.098Z,10.68
2018-09-26T05:43:05.889Z,10.73
2018-09-26T05:45:34.330Z,10.79
2018-09-26T05:48:02.634Z,10.82
2018-09-26T05:50:30.976Z,10.89
2018-09-26T05:52:59.271Z,10.90
2018-09-26T05:55:27.006Z,10.98
2018-09-26T05:57:55.918Z,11.03
2018-09-26T06:00:23.649Z,11.07
2018-09-26T06:02:52.562Z,11.15
2018-09-26T06:05:20.886Z,11.20
2018-09-26T06:07:49.179Z,11.23
2018-09-26T06:10:16.921Z,11.30
2018-09-26T06:12:45.242Z,11.34
2018-09-26T06:15:13.548Z,11.39
2018-09-26T06:17:42.433Z,11.39
2018-09-26T06:20:10.769Z,11.39
2018-09-26T06:22:38.491Z,11.45
2018-09-26T06:25:07.389Z,11.55
2018-09-26T06:27:35.136Z,11.67
2018-09-26T06:30:03.469Z,11.81
2018-09-26T06:32:31.817Z,11.91
2018-09-26T06:35:00.770Z,11.97
2018-09-26T06:37:29.030Z,12.00
2018-09-26T06:39:57.341Z,11.99
2018-09-26T06:42:25.090Z,12.03
2018-09-26T06:44:54.008Z,12.01
2018-09-26T06:47:22.374Z,12.01
2018-09-26T06:49:50.658Z,12.01
2018-09-26T06:52:18.414Z,12.02
2018-09-26T06:54:46.744Z,12.04
2018-09-26T06:57:15.654Z,12.04
2018-09-26T06:59:43.966Z,12.07
2018-09-26T07:02:12.298Z,12.04
2018-09-26T07:04:40.055Z,12.06
2018-09-26T07:07:08.375Z,12.05
2018-09-26T07:09:37.345Z,12.01
2018-09-26T07:12:05.131Z,12.00
2018-09-26T07:14:33.398Z,11.92
2018-09-26T07:17:01.715Z,11.94
2018-09-26T07:19:30.029Z,11.94
2018-09-26T07:21:58.930Z,11.91
2018-09-26T07:24:27.261Z,11.91
2018-09-26T07:26:55.588Z,11.88
2018-09-26T07:29:23.906Z,11.86
2018-09-26T07:31:52.226Z,11.82
2018-09-26T07:34:19.961Z,11.88
2018-09-26T07:36:48.856Z,11.93
2018-09-26T07:39:17.174Z,11.98
2018-09-26T07:41:44.914Z,11.98
2018-09-26T07:44:13.825Z,11.93
2018-09-26T07:46:42.141Z,12.00
2018-09-26T07:49:10.469Z,12.02
2018-09-26T07:51:38.210Z,12.03
2018-09-26T07:54:07.110Z,12.03
2018-09-26T07:56:35.440Z,12.03
2018-09-26T07:59:03.561Z,12.09
2018-09-26T08:01:31.589Z,12.05
2018-09-26T08:04:00.483Z,12.09
2018-09-26T08:06:28.829Z,12.12
2018-09-26T08:08:56.566Z,12.12
2018-09-26T08:11:25.537Z,12.15
2018-09-26T08:13:53.791Z,12.15
2018-09-26T08:16:22.117Z,12.19
2018-09-26T08:18:50.440Z,12.18
2018-09-26T08:21:18.177Z,12.18
2018-09-26T08:23:47.113Z,12.23
2018-09-26T08:26:14.830Z,12.26
2018-09-26T08:28:43.145Z,12.31
2018-09-26T08:31:12.649Z,12.34
2018-09-26T08:33:39.794Z,12.32
2018-09-26T08:36:08.694Z,12.39
2018-09-26T08:38:37.008Z,12.45
2018-09-26T08:41:05.328Z,12.51
2018-09-26T08:43:33.642Z,12.58
2018-09-26T08:46:01.969Z,12.56
2018-09-26T08:48:30.296Z,12.54
2018-09-26T08:50:58.035Z,12.56
2018-09-26T08:53:26.384Z,12.54
2018-09-26T08:55:55.286Z,12.52
2018-09-26T08:58:23.603Z,12.55
2018-09-26T09:00:51.348Z,12.54
2018-09-26T09:03:20.253Z,12.51
2018-09-26T09:05:49.177Z,12.52
2018-09-26T09:08:16.921Z,12.51
2018-09-26T09:10:45.886Z,12.58
2018-09-26T09:13:14.434Z,12.51
2018-09-26T09:15:42.542Z,12.56
2018-09-26T09:18:10.862Z,12.62
2018-09-26T09:20:38.605Z,12.59
2018-09-26T09:23:06.924Z,12.56
2018-09-26T09:25:35.830Z,12.57
2018-09-26T09:28:04.148Z,12.60
2018-09-26T09:30:31.889Z,12.57
2018-09-26T09:33:00.782Z,12.65
2018-09-26T09:35:29.103Z,12.68
2018-09-26T09:37:57.420Z,12.69
2018-09-26T09:40:25.184Z,12.71
2018-09-26T09:42:54.084Z,12.77
2018-09-26T09:45:22.437Z,12.81
2018-09-26T09:47:50.141Z,12.80
2018-09-26T09:50:18.504Z,12.82
2018-09-26T09:52:47.360Z,12.80
2018-09-26T09:55:15.699Z,12.67
2018-09-26T09:57:43.435Z,12.53
2018-09-26T10:00:12.336Z,12.45
2018-09-26T10:02:40.120Z,12.43
2018-09-26T10:05:08.994Z,12.43
2018-09-26T10:07:36.770Z,12.39
2018-09-26T10:10:05.681Z,12.28
2018-09-26T10:12:34.010Z,12.21
2018-09-26T10:15:02.328Z,12.04
2018-09-26T10:17:30.725Z,11.77
2018-09-26T10:19:58.409Z,11.50
2018-09-26T10:22:26.731Z,11.35
2018-09-26T10:24:55.645Z,11.24
2018-09-26T10:27:23.384Z,11.20
2018-09-26T10:29:52.289Z,11.08
2018-09-26T10:32:21.420Z,11.05
2018-09-26T10:34:48.980Z,10.96
2018-09-26T10:37:16.710Z,10.98
2018-09-26T10:39:45.024Z,11.03
2018-09-26T10:42:13.924Z,11.05
2018-09-26T10:44:41.663Z,11.12
2018-09-26T10:47:10.568Z,11.15
2018-09-26T10:49:38.897Z,11.20
2018-09-26T10:52:07.242Z,11.22
2018-09-26T10:54:35.577Z,11.24
2018-09-26T10:57:04.137Z,11.28
2018-09-26T10:59:32.261Z,11.29
2018-09-26T11:02:00.019Z,11.32
2018-09-26T11:04:28.328Z,11.31
2018-09-26T11:06:57.236Z,11.42
2018-09-26T11:09:25.564Z,11.42
2018-09-26T11:11:54.503Z,11.45
2018-09-26T11:14:22.711Z,11.45
2018-09-26T11:16:50.951Z,11.42
2018-09-26T11:19:19.766Z,11.46
2018-09-26T11:21:48.090Z,11.49
2018-09-26T11:24:16.433Z,11.50
2018-09-26T11:26:44.241Z,11.54
2018-09-26T11:29:12.488Z,11.53
2018-09-26T11:31:41.392Z,11.57
2018-09-26T11:34:09.786Z,11.57
2018-09-26T11:36:37.460Z,11.61
2018-09-26T11:39:05.793Z,11.70
2018-09-26T11:41:34.130Z,11.67
2018-09-26T11:44:03.031Z,11.73
2018-09-26T11:46:31.351Z,11.71
2018-09-26T11:48:59.678Z,11.68
2018-09-26T11:51:28.020Z,11.69
2018-09-26T11:53:56.353Z,11.60
2018-09-26T11:56:24.699Z,11.61
2018-09-26T11:58:52.992Z,11.64
2018-09-26T12:01:21.314Z,11.67
2018-09-26T12:03:49.104Z,11.72
2018-09-26T12:06:18.030Z,11.77
2018-09-26T12:08:45.721Z,11.82
2018-09-26T12:11:14.641Z,11.87
2018-09-26T12:13:43.001Z,11.90
2018-09-26T12:16:10.792Z,12.02
2018-09-26T12:18:39.075Z,12.07
2018-09-26T12:21:07.408Z,12.17
2018-09-26T12:23:36.293Z,12.25
2018-09-26T12:26:04.619Z,12.34
2018-09-26T12:28:32.383Z,12.36
2018-09-26T12:31:01.282Z,12.36
2018-09-26T12:33:29.600Z,12.36
2018-09-26T12:35:57.925Z,12.37
2018-09-26T12:38:26.249Z,12.34
2018-09-26T12:40:54.577Z,12.37
2018-09-26T12:43:22.321Z,12.37
2018-09-26T12:45:50.648Z,12.38
2018-09-26T12:48:19.607Z,12.36
2018-09-26T12:50:47.285Z,12.37
2018-09-26T12:53:16.186Z,12.37
2018-09-26T12:55:43.940Z,12.33
2018-09-26T12:58:12.278Z,12.35
2018-09-26T13:00:40.652Z,12.38
2018-09-26T13:03:09.489Z,12.41
2018-09-26T13:05:38.106Z,12.45
2018-09-26T13:08:06.457Z,12.48
2018-09-26T13:10:34.179Z,12.51
2018-09-26T13:13:03.078Z,12.58
2018-09-26T13:15:31.449Z,12.66
2018-09-26T13:17:59.784Z,12.74
2018-09-26T13:20:28.108Z,12.80
2018-09-26T13:22:56.634Z,12.84
2018-09-26T13:25:24.404Z,12.92
2018-09-26T13:27:52.700Z,13.02
2018-09-26T13:30:21.111Z,13.02
2018-09-26T13:32:49.942Z,13.12
2018-09-26T13:35:17.693Z,13.18
2018-09-26T13:37:46.591Z,13.23
2018-09-26T13:40:14.926Z,13.26
2018-09-26T13:42:43.236Z,13.30
2018-09-26T13:45:11.609Z,13.35
2018-09-26T13:47:39.358Z,13.36
2018-09-26T13:50:07.689Z,13.41
2018-09-26T13:52:36.595Z,13.46
2018-09-26T13:55:04.905Z,13.49
2018-09-26T13:57:33.227Z,13.50
2018-09-26T14:00:00.962Z,13.54
2018-09-26T14:02:29.864Z,13.56
2018-09-26T14:04:57.604Z,13.61
2018-09-26T14:07:26.547Z,13.65
2018-09-26T14:09:55.092Z,13.70
2018-09-26T14:12:23.432Z,13.70
2018-09-26T14:14:51.754Z,13.80
2018-09-26T14:17:20.143Z,13.84
2018-09-26T14:19:48.438Z,13.83
2018-09-26T14:22:16.224Z,13.85
2018-09-26T14:24:45.195Z,13.83
2018-09-26T14:27:13.521Z,13.85
2018-09-26T14:29:41.284Z,13.86
2018-09-26T14:32:09.641Z,13.89
2018-09-26T14:34:38.519Z,13.87
2018-09-26T14:37:06.526Z,13.89
2018-09-26T14:39:34.740Z,13.95
2018-09-26T14:42:03.525Z,13.84
2018-09-26T14:44:31.839Z,13.89
2018-09-26T14:47:00.155Z,13.89
2018-09-26T14:49:28.477Z,13.98
2018-09-26T14:51:56.801Z,13.97
2018-09-26T14:54:25.140Z,13.99
2018-09-26T14:56:53.474Z,13.98
2018-09-26T14:59:21.810Z,14.06
2018-09-26T15:01:50.142Z,14.01
2018-09-26T15:04:18.534Z,14.05
2018-09-26T15:06:46.778Z,14.00
2018-09-26T15:09:15.136Z,14.07
2018-09-26T15:11:45.472Z,14.10
2018-09-26T15:14:15.244Z,14.05
2018-09-26T15:16:43.532Z,14.00
2018-09-26T15:19:11.929Z,14.01
2018-09-26T15:21:40.266Z,14.01
2018-09-26T15:24:08.701Z,14.04
2018-09-26T15:26:37.014Z,14.08
2018-09-26T15:29:05.350Z,14.03
2018-09-26T15:31:34.332Z,14.04
2018-09-26T15:34:02.653Z,14.04
2018-09-26T15:36:31.010Z,14.00
2018-09-26T15:38:59.379Z,14.01
2018-09-26T15:41:27.145Z,14.04
2018-09-26T15:43:55.454Z,14.01
2018-09-26T15:46:24.470Z,13.99
2018-09-26T15:48:52.704Z,13.96
2018-09-26T15:51:21.031Z,13.97
2018-09-26T15:53:49.353Z,13.92
2018-09-26T15:56:17.728Z,13.93
2018-09-26T15:58:46.102Z,13.87
2018-09-26T16:01:13.851Z,13.91
2018-09-26T16:03:42.767Z,13.83
2018-09-26T16:06:10.521Z,13.84
2018-09-26T16:08:40.106Z,13.81
2018-09-26T16:11:07.843Z,13.73
2018-09-26T16:13:37.541Z,13.72
2018-09-26T16:16:05.934Z,13.75
2018-09-26T16:18:33.634Z,13.74
2018-09-26T16:21:02.573Z,13.80
2018-09-26T16:23:30.318Z,13.86
2018-09-26T16:25:59.216Z,13.88
2018-09-26T16:28:27.636Z,13.89
2018-09-26T16:30:55.912Z,13.91
2018-09-26T16:33:24.307Z,13.90
2018-09-26T16:35:52.683Z,13.91
2018-09-26T16:38:21.080Z,13.79
2018-09-26T16:40:49.327Z,13.81
2018-09-26T16:43:17.656Z,13.79
2018-09-26T16:45:46.228Z,13.80
2018-09-26T16:48:13.794Z,13.77
2018-09-26T16:50:42.099Z,13.80
2018-09-26T16:53:11.007Z,13.73
2018-09-26T16:55:39.351Z,13.75
2018-09-26T16:58:07.912Z,13.76
2018-09-26T17:00:36.240Z,13.78
2018-09-26T17:03:04.675Z,13.82
2018-09-26T17:05:33.057Z,13.85
2018-09-26T17:08:01.408Z,13.90
2018-09-26T17:10:29.975Z,13.89
2018-09-26T17:12:58.099Z,13.91
2018-09-26T17:15:26.522Z,14.01
2018-09-26T17:17:54.289Z,14.06
2018-09-26T17:20:23.221Z,14.08
2018-09-26T17:22:51.561Z,14.18
2018-09-26T17:25:19.962Z,14.24
2018-09-26T17:27:48.320Z,14.29
2018-09-26T17:30:16.717Z,14.30
2018-09-26T17:32:44.992Z,14.39
2018-09-26T17:35:13.598Z,14.37
2018-09-26T17:37:41.993Z,14.44
2018-09-26T17:40:10.351Z,14.44
2018-09-26T17:42:38.674Z,14.44
2018-09-26T17:45:07.041Z,14.50
2018-09-26T17:47:34.785Z,14.53
2018-09-26T17:50:03.771Z,14.55
2018-09-26T17:52:32.083Z,14.56
2018-09-26T17:55:00.531Z,14.63
2018-09-26T17:57:29.784Z,14.57
2018-09-26T17:59:58.167Z,14.62
2018-09-26T18:02:26.512Z,14.65
2018-09-26T18:04:54.937Z,14.65
2018-09-26T18:07:23.640Z,14.68
2018-09-26T18:09:51.360Z,14.70
2018-09-26T18:12:20.304Z,14.70
2018-09-26T18:14:48.667Z,14.74
2018-09-26T18:17:17.100Z,14.67
2018-09-26T18:19:45.406Z,14.70
2018-09-26T18:22:13.748Z,14.69
2018-09-26T18:24:42.091Z,14.75
2018-09-26T18:27:09.840Z,14.73
2018-09-26T18:29:38.890Z,14.78
2018-09-26T18:32:06.685Z,14.79
2018-09-26T18:34:35.611Z,14.80
2018-09-26T18:37:04.048Z,14.84
2018-09-26T18:39:32.469Z,14.80
2018-09-26T18:42:00.804Z,14.79
2018-09-26T18:44:29.266Z,14.80
2018-09-26T18:46:57.600Z,14.84
2018-09-26T18:49:25.429Z,14.79
2018-09-26T18:51:54.386Z,14.79
2018-09-26T18:54:22.251Z,14.75
2018-09-26T18:56:51.210Z,14.71
2018-09-26T18:59:19.626Z,14.73
2018-09-26T19:01:48.708Z,14.65
2018-09-26T19:04:17.134Z,14.66
2018-09-26T19:06:45.449Z,14.63
2018-09-26T19:09:13.887Z,14.59
2018-09-26T19:11:42.325Z,14.57
2018-09-26T19:14:10.645Z,14.54
2018-09-26T19:16:38.991Z,14.56
2018-09-26T19:19:07.454Z,14.56
2018-09-26T19:21:37.434Z,14.52
2018-09-26T19:24:05.894Z,14.56
2018-09-26T19:26:34.284Z,14.51
2018-09-26T19:29:02.695Z,14.55
2018-09-26T19:31:31.152Z,14.50
2018-09-26T19:33:59.560Z,14.57
2018-09-26T19:36:28.684Z,14.56
2018-09-26T19:38:57.003Z,14.52
2018-09-26T19:41:25.432Z,14.49
2018-09-26T19:43:53.760Z,14.52
2018-09-26T19:46:22.095Z,14.47
2018-09-26T19:48:50.604Z,14.42
2018-09-26T19:51:19.166Z,14.35
2018-09-26T19:53:47.543Z,14.35
2018-09-26T19:56:16.021Z,14.27
2018-09-26T19:58:44.651Z,14.29
2018-09-26T20:01:12.953Z,14.30
2018-09-26T20:03:41.289Z,14.33
2018-09-26T20:06:09.625Z,14.30
2018-09-26T20:08:37.909Z,14.28
2018-09-26T20:11:06.271Z,14.28
2018-09-26T20:13:34.069Z,14.33
2018-09-26T20:16:03.000Z,14.30
2018-09-26T20:18:31.394Z,14.32
2018-09-26T20:20:59.742Z,14.39
2018-09-26T20:23:28.334Z,14.47
2018-09-26T20:25:56.890Z,14.47
2018-09-26T20:28:25.417Z,14.53
2018-09-26T20:30:53.877Z,14.61
2018-09-26T20:33:22.134Z,14.60
2018-09-26T20:35:50.460Z,14.66
2018-09-26T20:38:18.215Z,14.67
2018-09-26T20:40:47.122Z,14.70
2018-09-26T20:43:15.505Z,14.75
2018-09-26T20:45:44.181Z,14.76
2018-09-26T20:48:12.520Z,14.79
2018-09-26T20:50:40.842Z,14.85
2018-09-26T20:53:09.173Z,14.83
2018-09-26T20:55:36.916Z,14.83
2018-09-26T20:58:05.818Z,14.79
2018-09-26T21:00:34.178Z,14.75
2018-09-26T21:03:02.462Z,14.70
2018-09-26T21:05:30.798Z,14.69
2018-09-26T21:07:59.143Z,14.70
2018-09-26T21:10:27.481Z,14.72
2018-09-26T21:12:55.798Z,14.68
2018-09-26T21:15:23.550Z,14.73
2018-09-26T21:17:51.927Z,14.63
2018-09-26T21:20:21.039Z,14.62
2018-09-26T21:22:49.184Z,14.50
2018-09-26T21:25:16.920Z,14.49
2018-09-26T21:27:45.832Z,14.44
2018-09-26T21:30:13.573Z,14.38
2018-09-26T21:32:42.473Z,14.31
2018-09-26T21:35:10.223Z,14.21
2018-09-26T21:37:39.156Z,14.18
2018-09-26T21:40:07.484Z,14.11
2018-09-26T21:42:36.041Z,14.04
2018-09-26T21:45:04.142Z,13.91
2018-09-26T21:47:32.656Z,13.89
2018-09-26T21:50:01.044Z,13.84
2018-09-26T21:52:28.745Z,13.78
2018-09-26T21:54:57.654Z,13.68
2018-09-26T21:57:25.998Z,13.63
2018-09-26T21:59:54.329Z,13.62
2018-09-26T22:02:22.082Z,13.63
2018-09-26T22:04:50.405Z,13.66
2018-09-26T22:07:19.321Z,13.70
2018-09-26T22:09:47.057Z,13.72
2018-09-26T22:12:15.413Z,13.80
2018-09-26T22:14:44.420Z,13.81
2018-09-26T22:17:13.498Z,13.86
2018-09-26T22:19:41.090Z,13.85
2018-09-26T22:22:09.435Z,13.86
2018-09-26T22:24:37.754Z,13.87
2018-09-26T22:27:06.082Z,13.93
2018-09-26T22:29:33.832Z,13.99
2018-09-26T22:32:02.192Z,14.03
2018-09-26T22:34:31.115Z,14.04
2018-09-26T22:36:58.860Z,14.09
2018-09-26T22:39:27.253Z,14.11
2018-09-26T22:41:56.170Z,14.15
2018-09-26T22:44:24.497Z,14.20
2018-09-26T22:46:52.850Z,14.22
2018-09-26T22:49:21.167Z,14.28
2018-09-26T22:51:49.495Z,14.31
2018-09-26T22:54:17.829Z,14.35
2018-09-26T22:56:46.164Z,14.40
2018-09-26T22:59:14.492Z,14.43
2018-09-26T23:01:42.808Z,14.52
2018-09-26T23:04:11.130Z,14.56
2018-09-26T23:06:38.873Z,14.63
2018-09-26T23:09:07.777Z,14.71
2018-09-26T23:11:36.112Z,14.78
2018-09-26T23:14:04.432Z,14.88
2018-09-26T23:16:32.773Z,14.95
2018-09-26T23:19:01.108Z,15.06
2018-09-26T23:21:28.845Z,15.12
2018-09-26T23:23:57.176Z,15.18
2018-09-26T23:26:25.492Z,15.22
2018-09-26T23:28:53.816Z,15.33
2018-09-26T23:31:22.719Z,15.38
2018-09-26T23:33:51.097Z,15.44
2018-09-26T23:36:18.833Z,15.47
2018-09-26T23:38:47.734Z,15.48
2018-09-26T23:41:15.475Z,15.56
2018-09-26T23:43:44.376Z,15.61
2018-09-26T23:46:12.121Z,15.63
2018-09-26T23:48:40.430Z,15.66
2018-09-26T23:51:08.774Z,15.68
2018-09-26T23:53:37.109Z,15.70
2018-09-26T23:56:06.013Z,15.71
2018-09-26T23:58:34.341Z,15.76
